sensor_id;sensor_type;location;lat;lon;timestamp;temperature;humidity
50606;DHT22;36557;53.572;10.170;2023-04-26T12:27:34;12.00;90.70
50606;DHT22;36557;53.572;10.170;2023-04-26T12:30:00;11.60;91.10
50606;DHT22;36557;53.572;10.170;2023-04-26T12:32:26;11.70;92.40
50606;DHT22;36557;53.572;10.170;2023-04-26T12:34:52;12.00;91.70
50606;DHT22;36557;53.572;10.170;2023-04-26T12:37:18;11.60;93.60
50606;DHT22;36557;53.572;10.170;2023-04-26T12:39:43;11.60;92.90
50606;DHT22;36557;53.572;10.170;2023-04-26T12:42:11;11.80;92.60
50606;DHT22;36557;53.572;10.170;2023-04-26T12:44:37;12.10;92.30
50606;DHT22;36557;53.572;10.170;2023-04-26T12:47:02;11.90;91.80
50606;DHT22;36557;53.572;10.170;2023-04-26T12:49:28;11.60;91.90
50606;DHT22;36557;53.572;10.170;2023-04-26T12:51:54;12.70;91.30
50606;DHT22;36557;53.572;10.170;2023-04-26T12:54:20;12.80;92.30
50606;DHT22;36557;53.572;10.170;2023-04-26T12:56:46;12.20;90.50
50606;DHT22;36557;53.572;10.170;2023-04-26T12:59:12;11.50;90.90
50606;DHT22;36557;53.572;10.170;2023-04-26T13:01:38;11.00;92.20
50606;DHT22;36557;53.572;10.170;2023-04-26T13:04:04;11.00;92.40
50606;DHT22;36557;53.572;10.170;2023-04-26T13:06:30;11.30;92.10
50606;DHT22;36557;53.572;10.170;2023-04-26T13:08:56;11.10;91.30
50606;DHT22;36557;53.572;10.170;2023-04-26T13:11:22;11.10;90.50
50606;DHT22;36557;53.572;10.170;2023-04-26T13:13:48;10.80;91.10
50606;DHT22;36557;53.572;10.170;2023-04-26T13:16:14;10.60;89.50
50606;DHT22;36557;53.572;10.170;2023-04-26T13:18:40;10.50;89.40
50606;DHT22;36557;53.572;10.170;2023-04-26T13:21:06;10.70;91.10
50606;DHT22;36557;53.572;10.170;2023-04-26T13:23:31;11.00;91.70
50606;DHT22;36557;53.572;10.170;2023-04-26T13:25:57;11.60;91.80
50606;DHT22;36557;53.572;10.170;2023-04-26T13:28:23;11.90;91.40
50606;DHT22;36557;53.572;10.170;2023-04-26T13:30:49;11.80;91.50
50606;DHT22;36557;53.572;10.170;2023-04-26T13:33:14;11.40;90.90
50606;DHT22;36557;53.572;10.170;2023-04-26T13:35:40;12.10;92.10
50606;DHT22;36557;53.572;10.170;2023-04-26T13:38:06;11.70;90.10
50606;DHT22;36557;53.572;10.170;2023-04-26T13:40:31;11.40;85.80
50606;DHT22;36557;53.572;10.170;2023-04-26T13:42:57;10.80;85.70
50606;DHT22;36557;53.572;10.170;2023-04-26T13:45:23;10.50;86.30
50606;DHT22;36557;53.572;10.170;2023-04-26T13:47:49;10.50;87.60
50606;DHT22;36557;53.572;10.170;2023-04-26T13:50:15;10.20;89.10
50606;DHT22;36557;53.572;10.170;2023-04-26T13:52:41;10.40;89.30
50606;DHT22;36557;53.572;10.170;2023-04-26T13:55:07;10.80;89.10
50606;DHT22;36557;53.572;10.170;2023-04-26T13:57:33;11.40;84.00
50606;DHT22;36557;53.572;10.170;2023-04-26T13:59:58;11.30;85.60
50606;DHT22;36557;53.572;10.170;2023-04-26T14:02:24;10.70;85.60
50606;DHT22;36557;53.572;10.170;2023-04-26T14:04:50;10.80;87.50
50606;DHT22;36557;53.572;10.170;2023-04-26T14:07:16;10.90;89.40
50606;DHT22;36557;53.572;10.170;2023-04-26T14:09:42;11.30;86.80
50606;DHT22;36557;53.572;10.170;2023-04-26T14:12:07;11.90;87.80
50606;DHT22;36557;53.572;10.170;2023-04-26T14:14:34;11.50;88.10
50606;DHT22;36557;53.572;10.170;2023-04-26T14:17:00;11.20;90.00
50606;DHT22;36557;53.572;10.170;2023-04-26T14:19:26;10.50;88.40
50606;DHT22;36557;53.572;10.170;2023-04-26T14:21:51;10.40;90.00
50606;DHT22;36557;53.572;10.170;2023-04-26T14:24:17;11.30;90.40
50606;DHT22;36557;53.572;10.170;2023-04-26T14:29:09;11.50;86.30
50606;DHT22;36557;53.572;10.170;2023-04-26T14:31:34;11.50;87.60
50606;DHT22;36557;53.572;10.170;2023-04-26T14:34:00;11.50;82.30
50606;DHT22;36557;53.572;10.170;2023-04-26T14:36:26;11.80;85.80
50606;DHT22;36557;53.572;10.170;2023-04-26T14:38:53;12.00;85.30
50606;DHT22;36557;53.572;10.170;2023-04-26T14:41:18;12.10;83.00
50606;DHT22;36557;53.572;10.170;2023-04-26T14:43:47;11.70;80.40
50606;DHT22;36557;53.572;10.170;2023-04-26T14:46:14;11.60;83.40
50606;DHT22;36557;53.572;10.170;2023-04-26T14:48:40;11.30;82.80
50606;DHT22;36557;53.572;10.170;2023-04-26T14:51:08;11.40;84.00
50606;DHT22;36557;53.572;10.170;2023-04-26T14:53:34;11.70;83.70
50606;DHT22;36557;53.572;10.170;2023-04-26T14:56:00;11.70;83.20
50606;DHT22;36557;53.572;10.170;2023-04-26T14:58:26;11.50;84.50
50606;DHT22;36557;53.572;10.170;2023-04-26T15:00:52;11.40;82.60
50606;DHT22;36557;53.572;10.170;2023-04-26T15:03:18;11.00;84.40
50606;DHT22;36557;53.572;10.170;2023-04-26T15:05:45;10.90;88.10
50606;DHT22;36557;53.572;10.170;2023-04-26T15:08:10;10.80;89.80
50606;DHT22;36557;53.572;10.170;2023-04-26T15:10:36;10.70;90.50
50606;DHT22;36557;53.572;10.170;2023-04-26T15:13:02;10.80;90.70
50606;DHT22;36557;53.572;10.170;2023-04-26T15:17:56;10.20;90.60
50606;DHT22;36557;53.572;10.170;2023-04-26T15:20:21;10.40;90.30
50606;DHT22;36557;53.572;10.170;2023-04-26T15:22:48;10.70;90.10
50606;DHT22;36557;53.572;10.170;2023-04-26T15:25:14;11.00;90.50
50606;DHT22;36557;53.572;10.170;2023-04-26T15:27:40;11.00;88.80
50606;DHT22;36557;53.572;10.170;2023-04-26T15:30:07;10.70;90.10
50606;DHT22;36557;53.572;10.170;2023-04-26T15:32:35;10.10;86.10
50606;DHT22;36557;53.572;10.170;2023-04-26T15:35:01;10.00;87.80
50606;DHT22;36557;53.572;10.170;2023-04-26T15:37:27;10.40;88.30
50606;DHT22;36557;53.572;10.170;2023-04-26T15:39:52;10.50;85.70
50606;DHT22;36557;53.572;10.170;2023-04-26T15:42:18;10.30;85.40
50606;DHT22;36557;53.572;10.170;2023-04-26T15:44:44;10.10;86.60
50606;DHT22;36557;53.572;10.170;2023-04-26T15:47:09;10.20;87.20
50606;DHT22;36557;53.572;10.170;2023-04-26T15:49:35;9.90;86.80
50606;DHT22;36557;53.572;10.170;2023-04-26T15:52:01;10.20;88.00
50606;DHT22;36557;53.572;10.170;2023-04-26T15:54:27;9.90;87.80
50606;DHT22;36557;53.572;10.170;2023-04-26T15:56:52;9.60;88.60
50606;DHT22;36557;53.572;10.170;2023-04-26T15:59:19;9.90;89.70
50606;DHT22;36557;53.572;10.170;2023-04-26T16:01:45;10.00;87.80
50606;DHT22;36557;53.572;10.170;2023-04-26T16:04:11;9.90;88.70
50606;DHT22;36557;53.572;10.170;2023-04-26T16:06:37;10.00;88.30
50606;DHT22;36557;53.572;10.170;2023-04-26T16:09:02;9.90;86.30
50606;DHT22;36557;53.572;10.170;2023-04-26T16:11:32;9.80;87.10
50606;DHT22;36557;53.572;10.170;2023-04-26T16:13:58;9.40;87.90
50606;DHT22;36557;53.572;10.170;2023-04-26T16:16:24;9.70;89.00
50606;DHT22;36557;53.572;10.170;2023-04-26T16:18:50;10.00;88.70
50606;DHT22;36557;53.572;10.170;2023-04-26T16:21:15;9.80;89.30
50606;DHT22;36557;53.572;10.170;2023-04-26T16:23:41;9.90;88.60
50606;DHT22;36557;53.572;10.170;2023-04-26T16:26:07;10.20;88.50
50606;DHT22;36557;53.572;10.170;2023-04-26T16:28:34;9.90;89.20
50606;DHT22;36557;53.572;10.170;2023-04-26T16:30:59;10.10;89.90
50606;DHT22;36557;53.572;10.170;2023-04-26T16:38:27;9.60;90.90
50606;DHT22;36557;53.572;10.170;2023-04-26T16:40:56;9.60;91.10
50606;DHT22;36557;53.572;10.170;2023-04-26T16:43:25;9.50;91.10
50606;DHT22;36557;53.572;10.170;2023-04-26T16:46:03;9.20;90.70
50606;DHT22;36557;53.572;10.170;2023-04-26T16:48:36;9.40;90.70
50606;DHT22;36557;53.572;10.170;2023-04-26T16:51:04;9.50;90.80
50606;DHT22;36557;53.572;10.170;2023-04-26T16:53:30;9.60;91.00
50606;DHT22;36557;53.572;10.170;2023-04-26T16:55:57;9.50;90.60
50606;DHT22;36557;53.572;10.170;2023-04-26T16:58:23;9.50;91.40
50606;DHT22;36557;53.572;10.170;2023-04-26T17:00:48;9.60;91.60
50606;DHT22;36557;53.572;10.170;2023-04-26T17:03:15;9.40;92.20
50606;DHT22;36557;53.572;10.170;2023-04-26T17:05:42;9.60;91.90
50606;DHT22;36557;53.572;10.170;2023-04-26T17:08:08;9.30;92.10
50606;DHT22;36557;53.572;10.170;2023-04-26T17:10:35;9.30;92.60
50606;DHT22;36557;53.572;10.170;2023-04-26T17:13:02;9.30;93.30
50606;DHT22;36557;53.572;10.170;2023-04-26T17:15:29;9.30;93.40
50606;DHT22;36557;53.572;10.170;2023-04-26T17:17:55;9.40;92.80
50606;DHT22;36557;53.572;10.170;2023-04-26T17:20:21;9.50;92.90
50606;DHT22;36557;53.572;10.170;2023-04-26T17:22:47;9.20;92.80
50606;DHT22;36557;53.572;10.170;2023-04-26T17:25:13;9.10;93.20
50606;DHT22;36557;53.572;10.170;2023-04-26T17:27:39;9.30;93.00
50606;DHT22;36557;53.572;10.170;2023-04-26T17:30:05;9.20;92.40
50606;DHT22;36557;53.572;10.170;2023-04-26T17:32:31;8.90;91.80
50606;DHT22;36557;53.572;10.170;2023-04-26T17:34:57;8.80;91.50
50606;DHT22;36557;53.572;10.170;2023-04-26T17:37:22;8.80;91.50
50606;DHT22;36557;53.572;10.170;2023-04-26T17:39:48;8.70;91.20
50606;DHT22;36557;53.572;10.170;2023-04-26T17:42:14;8.60;90.60
50606;DHT22;36557;53.572;10.170;2023-04-26T17:44:40;8.40;90.40
50606;DHT22;36557;53.572;10.170;2023-04-26T17:47:06;8.30;91.30
50606;DHT22;36557;53.572;10.170;2023-04-26T17:49:31;8.30;91.90
50606;DHT22;36557;53.572;10.170;2023-04-26T17:51:57;8.40;92.60
50606;DHT22;36557;53.572;10.170;2023-04-26T17:54:23;8.40;92.50
50606;DHT22;36557;53.572;10.170;2023-04-26T17:56:48;8.50;92.90
50606;DHT22;36557;53.572;10.170;2023-04-26T17:59:14;8.30;92.70
50606;DHT22;36557;53.572;10.170;2023-04-26T18:01:40;8.10;92.60
50606;DHT22;36557;53.572;10.170;2023-04-26T18:04:06;8.10;92.80
50606;DHT22;36557;53.572;10.170;2023-04-26T18:06:31;8.20;92.60
50606;DHT22;36557;53.572;10.170;2023-04-26T18:08:57;8.10;92.00
50606;DHT22;36557;53.572;10.170;2023-04-26T18:11:23;8.00;92.20
50606;DHT22;36557;53.572;10.170;2023-04-26T18:13:48;7.90;92.10
50606;DHT22;36557;53.572;10.170;2023-04-26T18:16:14;8.00;92.60
50606;DHT22;36557;53.572;10.170;2023-04-26T18:18:42;7.80;92.30
50606;DHT22;36557;53.572;10.170;2023-04-26T18:21:11;7.50;93.00
